nws-alerts: Checking more than four warning/county codes can delay the loading of your pages. You should use a cron job to get the data.

Nearby METAR Weather Reports

 

KETB - West Bend, WI
Distance from station: E 4mi, 6km
Updated: 07/15/2020 7:15pm
Rain, Overcast
Rain, Overcast
 Wind from NE
Wind: NE 8 mph , 13 km/h
Temperature: 63°F , 17°C
Dew Point: 63°F , 17°C
Humidity: 100%
Barometer: 30.00 inHg , 1015.9 hPa
Summary: Rain
Clouds: Overcast
Visibility: 10 miles , 16 km
Cloud details: Overcast 600 ft
2020/07/16 00:15 KETB 160015Z AUTO 05007KT 10SM RA OVC006 17/17 A3000 RMK AO2 P0002
KFLD - Fond Du Lac, WI
Distance from station: W 34mi, 54km
Updated: 07/15/2020 6:53pm
Rain, Mist, Overcast
Rain, Mist, Overcast
 Wind from NE
Wind: NE 7 mph , 11 km/h
Temperature: 68°F , 20°C
Dew Point: 64°F , 18°C
Humidity: 88%
Barometer: 30.02 inHg , 1016.6 hPa
Summary: Rain, Mist
Clouds: Overcast
Visibility: 6 miles , 10 km
Cloud details: Partly cloudy 6000 ft
Overcast 10000 ft
2020/07/15 23:53 KFLD 152353Z AUTO 05006KT 6SM RA BR SCT060 OVC100 20/18 A3002 RMK AO2 SLP162 P0015 60085 T02000183 10222 20200 53009 TSNO
 
KSBM - Sheboygan, WI
Distance from station: NE 36mi, 57km
Updated: 07/15/2020 7:11pm
Light rain, Mostly cloudy
Light rain, Mostly cloudy
 Wind from NE
Wind: NE 9 mph , 15 km/h
Temperature: 66°F , 19°C
Dew Point: 64°F , 18°C
Humidity: 94%
Barometer: 30.00 inHg , 1015.9 hPa
Summary: Light rain
Clouds: Mostly cloudy
Visibility: 9 miles , 14 km
Cloud details: Partly cloudy 800 ft
Partly cloudy 3700 ft
Mostly cloudy 6500 ft
2020/07/16 00:11 KSBM 160011Z AUTO 04008KT 9SM -RA SCT008 SCT037 BKN065 19/18 A3000 RMK AO2 P0002 T01890183
KMKE - Milwaukee, WI
Distance from station: S 44mi, 70km
Updated: 07/15/2020 6:52pm
Light rain, Overcast
Light rain, Overcast
 Wind from NNE
Wind: NNE 13 mph , 20 km/h
Temperature: 70°F , 21°C
Dew Point: 66°F , 19°C
Humidity: 88%
Barometer: 29.95 inHg , 1014.2 hPa
Summary: Light rain
Clouds: Overcast
Visibility: 7 miles , 11 km
Cloud details: Mostly cloudy 700 ft
Mostly cloudy 2000 ft
Overcast 4700 ft
2020/07/15 23:52 KMKE 152352Z 02011KT 7SM -RA BKN007 BKN020 OVC047 21/19 A2995 RMK AO2 SLP139 P0019 60036 T02110194 10283 20211 53011
 
KOSH - Oshkosh, WI
Distance from station: WNW 52mi, 83km
Updated: 07/15/2020 7:12pm
Rain, Mist, Overcast
Rain, Mist, Overcast
 Wind from NNE
Wind: NNE 3 mph , 6 km/h
Temperature: 66°F , 19°C
Dew Point: 64°F , 18°C
Humidity: 94%
Barometer: 30.02 inHg , 1016.6 hPa
Summary: Rain, Mist
Clouds: Overcast
Visibility: 3 miles , 5 km
Cloud details: Mostly cloudy 6000 ft
Overcast 7500 ft
2020/07/16 00:12 KOSH 160012Z 02003KT 3SM RA BR BKN060 OVC075 19/18 A3002 RMK AO2 P0006 T01890178
KENW - Kenosha, WI
Distance from station: SSE 69mi, 111km
Updated: 07/15/2020 7:01pm
Heavy rain, Overcast
Heavy rain, Overcast
 Wind from SSW
Wind: SSW 3 mph , 6 km/h
Temperature: 72°F , 22°C
Dew Point: 64°F , 18°C
Humidity: 78%
Barometer: 29.96 inHg , 1014.6 hPa
Summary: Heavy rain
Clouds: Overcast
Visibility: 1 1/4 miles , 2 km
Cloud details: Few Clouds 2800 ft
Overcast 5000 ft
2020/07/16 00:01 KENW 160001Z 20003KT 1 1/4SM +RA FEW028 OVC050 22/18 A2996 RMK AO2 P0004 T02170183
 
KMSN - Madison, WI
Distance from station: SW 69mi, 111km
Updated: 07/15/2020 6:53pm
Overcast
Overcast
 Wind from NNE
Wind: NNE 7 mph , 11 km/h
Temperature: 68°F , 20°C
Dew Point: 64°F , 18°C
Humidity: 88%
Barometer: 29.98 inHg , 1015.2 hPa
Clouds: Overcast
Visibility: 10 miles , 16 km
Cloud details: Overcast 3500 ft
2020/07/15 23:53 KMSN 152353Z 02006KT 10SM OVC035 20/18 A2998 RMK AO2 RAB14E46 SLP148 P0000 60047 T02000183 10228 20200 53011
KSAW - Marquette, MI
Distance from station: N 262mi, 421km
Updated: 07/15/2020 6:45pm
Clear
Clear
 Wind from SSW
Wind: SSW 9 mph , 15 km/h
Temperature: 70°F , 21°C
Dew Point: 61°F , 16°C
Humidity: 73%
Barometer: 30.01 inHg , 1016.3 hPa
Clouds: Clear
Visibility: 10 miles , 16 km
2020/07/15 23:45 KSAW 152345Z 20008KT 10SM SKC 21/16 A3001
 
KIMT - Iron Mountain, MI
Distance from station: NNW 201mi, 323km
Updated: 07/15/2020 6:54pm
Clear
Clear
 Wind from calm
Wind: Calm
Temperature: 66°F , 19°C
Dew Point: 59°F , 15°C
Humidity: 78%
Barometer: 30.00 inHg , 1015.9 hPa
Clouds: Clear
Visibility: 10 miles , 16 km
2020/07/15 23:54 KIMT 152354Z AUTO 00000KT 10SM CLR 19/15 A3000 RMK AO2 SLP158 T01940150 10233 20194 55004
KGRB - Green Bay, WI
Distance from station: NNW 87mi, 140km
Updated: 07/15/2020 7:08pm
Light rain, Overcast
Light rain, Overcast
 Wind from calm
Wind: Calm
Temperature: 64°F , 18°C
Dew Point: 63°F , 17°C
Humidity: 94%
Barometer: 30.03 inHg , 1016.9 hPa
Summary: Light rain
Clouds: Overcast
Visibility: 10 miles , 16 km
Cloud details: Partly cloudy 1500 ft
Overcast 11000 ft
2020/07/16 00:08 KGRB 160008Z AUTO 00000KT 10SM -RA SCT015 OVC110 18/17 A3003 RMK AO2 P0001 T01830167
 
KAUW - Wausau, WI
Distance from station: NW 155mi, 249km
Updated: 07/15/2020 6:54pm
Mostly cloudy
Mostly cloudy
 Wind from SE
Wind: SE 9 mph , 15 km/h
Temperature: 64°F , 18°C
Dew Point: 63°F , 17°C
Humidity: 94%
Barometer: 30.00 inHg , 1015.9 hPa
Clouds: Mostly cloudy
Visibility: 10 miles , 16 km
Cloud details: Mostly cloudy 11000 ft
2020/07/15 23:54 KAUW 152354Z AUTO 13008KT 10SM BKN110 18/17 A3000 RMK AO2 SLP161 60000 T01780167 10206 20178 58002
KORD - Chicago O'Hare, IL
Distance from station: S 113mi, 181km
Updated: 07/15/2020 6:51pm
Light rain, Overcast
Light rain, Overcast
 Wind from WNW
Wind: WNW 3 mph , 6 km/h
Temperature: 75°F , 24°C
Dew Point: 68°F , 20°C
Humidity: 78%
Barometer: 29.94 inHg , 1013.9 hPa
Summary: Light rain
Clouds: Overcast
Visibility: 9 miles , 14 km
Cloud details: Few Clouds 2000 ft
Overcast 9500 ft
2020/07/15 23:51 KORD 152351Z 30003KT 9SM -RA FEW020 OVC095 24/20 A2994 RMK AO2 SLP132 P0002 60011 T02390200 10306 20239 55003
 
KVOK - WIANG Volk Field, Camp Douglas, WI
Distance from station: WNW 120mi, 193km
Updated: 07/15/2020 6:56pm
Partly cloudy
Partly cloudy
 Wind from NE
Wind: NE 7 mph , 11 km/h
Temperature: 64°F , 18°C
Dew Point: 64°F , 18°C
Humidity: 100%
Barometer: 30.00 inHg , 1015.9 hPa
Clouds: Partly cloudy
Visibility: 10 miles , 16 km
Cloud details: Partly cloudy 10000 ft
2020/07/15 23:56 KVOK 152356Z AUTO 04006KT 10SM SCT100 18/18 A3000 RMK AO2 SLP161 T01830183 10205 20183 50002
KLNR - Lone Rock, WI
Distance from station: W 114mi, 183km
Updated: 07/15/2020 6:56pm
Mostly cloudy
Mostly cloudy
 Wind from E
Wind: E 7 mph , 11 km/h
Temperature: 70°F , 21°C
Dew Point: 64°F , 18°C
Humidity: 83%
Barometer: 29.96 inHg , 1014.6 hPa
Clouds: Mostly cloudy
Visibility: 10 miles , 16 km
Cloud details: Mostly cloudy 10000 ft
2020/07/15 23:56 KLNR 152356Z AUTO 10006KT 10SM BKN100 21/18 A2996 RMK AO2 SLP138 60065 T02110183 10217 20200 55012